Time;durP1;ratioP1;P1;durP2;ratioP2;P2;SDS_P1;SDS_P2;PMS_P1;PMS_P2;Temp;Humidity;BMP_temperature;BMP_pressure;BME280_temperature;BME280_humidity;BME280_pressure;Samples;Min_cycle;Max_cycle;Signal;HPM_P1;HPM_P2
2021/01/07 00:01:19;;;;;;;73.97;17.10;;;;;;;1.02;98.33;99613.41;3468381;28;20049;-47
2021/01/07 00:03:01;;;;;;;65.47;17.00;;;;;;;1.01;98.43;99613.31;3470701;28;20049;-48
2021/01/07 00:04:43;;;;;;;56.33;14.70;;;;;;;1.02;98.16;99622.72;3467987;28;20057;-49
2021/01/07 00:06:27;;;;;;;68.13;16.60;;;;;;;1.02;98.61;99615.06;3467815;28;20464;-49
2021/01/07 00:08:11;;;;;;;66.10;16.38;;;;;;;1.02;98.30;99609.94;3470636;28;20053;-49
2021/01/07 00:09:53;;;;;;;56.17;16.50;;;;;;;1.02;98.26;99592.06;3468137;28;20045;-47
2021/01/07 00:11:35;;;;;;;49.78;14.93;;;;;;;1.02;98.33;99590.41;3469501;28;20053;-48
2021/01/07 00:13:17;;;;;;;42.15;13.20;;;;;;;1.02;98.50;99595.50;3469306;28;20049;-50
2021/01/07 00:14:59;;;;;;;56.83;15.63;;;;;;;1.01;98.49;99593.75;3468077;28;20140;-49
2021/01/07 00:16:41;;;;;;;45.30;14.32;;;;;;;1.03;98.57;99593.81;3469597;28;20053;-48
2021/01/07 00:18:23;;;;;;;48.53;14.20;;;;;;;1.03;98.72;99592.16;3467697;28;20140;-48
2021/01/07 00:20:08;;;;;;;113.72;18.42;;;;;;;1.03;98.61;99596.38;3467845;28;20046;-49
2021/01/07 00:21:51;;;;;;;64.88;15.95;;;;;;;1.03;98.62;99593.81;3470281;28;20049;-49
2021/01/07 00:23:33;;;;;;;68.45;18.75;;;;;;;1.03;98.62;99592.16;3468103;28;20045;-47
2021/01/07 00:25:15;;;;;;;76.55;15.38;;;;;;;1.05;98.38;99587.13;3468637;28;20059;-50
2021/01/07 00:26:57;;;;;;;63.35;18.63;;;;;;;1.05;98.61;99585.44;3470181;28;20141;-49
2021/01/07 00:28:39;;;;;;;70.10;16.85;;;;;;;1.05;98.70;99579.44;3467724;28;20530;-47
2021/01/07 00:30:22;;;;;;;66.82;18.42;;;;;;;1.06;98.42;99588.88;3469480;28;20569;-47
2021/01/07 00:32:04;;;;;;;73.82;17.70;;;;;;;1.06;98.85;99588.88;3468909;28;20088;-49
2021/01/07 00:33:46;;;;;;;77.00;19.75;;;;;;;1.04;98.69;99581.13;3467833;28;20052;-48
2021/01/07 00:35:29;;;;;;;74.22;17.95;;;;;;;1.06;98.58;99579.53;3469370;28;20407;-47
2021/01/07 00:37:12;;;;;;;58.92;15.35;;;;;;;1.07;98.68;99586.41;3468024;28;20050;-49
2021/01/07 00:38:54;;;;;;;73.05;17.38;;;;;;;1.07;98.83;99594.06;3468426;28;20132;-49
2021/01/07 00:40:37;;;;;;;60.97;16.63;;;;;;;1.08;98.84;99605.16;3469423;28;20060;-49
2021/01/07 00:42:19;;;;;;;56.33;17.52;;;;;;;1.09;98.72;99601.78;3466439;28;20060;-48
2021/01/07 00:44:03;;;;;;;74.65;19.65;;;;;;;1.09;98.70;99596.69;3469006;28;20526;-49
2021/01/07 00:45:45;;;;;;;89.88;20.15;;;;;;;1.11;98.78;99592.53;3469275;28;20061;-49
2021/01/07 00:47:27;;;;;;;66.45;18.45;;;;;;;1.10;98.69;99591.66;3467581;28;20049;-47
2021/01/07 00:49:09;;;;;;;61.70;17.08;;;;;;;1.12;98.85;99584.94;3470088;28;20046;-49
2021/01/07 00:50:51;;;;;;;58.13;16.48;;;;;;;1.13;98.57;99578.16;3468236;28;20061;-49
2021/01/07 00:52:34;;;;;;;80.10;18.10;;;;;;;1.14;98.67;99575.69;3468088;28;20133;-48
2021/01/07 00:54:18;;;;;;;84.45;19.95;;;;;;;1.15;98.93;99574.88;3469927;28;20458;-48
2021/01/07 00:56:00;;;;;;;56.85;15.77;;;;;;;1.15;98.72;99577.44;3467261;28;20060;-48
2021/01/07 00:57:41;;;;;;;77.85;19.65;;;;;;;1.16;98.58;99576.63;3467556;28;20053;-49
2021/01/07 00:59:23;;;;;;;88.75;21.10;;;;;;;1.20;98.74;99587.03;3469624;28;20564;-49
2021/01/07 01:01:05;;;;;;;65.80;17.38;;;;;;;1.20;98.85;99571.69;3467238;28;20049;-49
2021/01/07 01:02:47;;;;;;;60.50;17.98;;;;;;;1.20;98.76;99569.13;3469058;28;20096;-48
2021/01/07 01:04:29;;;;;;;75.90;20.92;;;;;;;1.22;98.80;99570.94;3467841;28;20511;-50
2021/01/07 01:06:11;;;;;;;79.20;19.52;;;;;;;1.23;98.68;99571.81;3467416;28;20056;-48
2021/01/07 01:07:53;;;;;;;82.90;20.77;;;;;;;1.24;98.60;99573.59;3469535;28;20132;-48
2021/01/07 01:09:35;;;;;;;87.53;22.13;;;;;;;1.25;98.64;99570.22;3467437;28;20049;-48
2021/01/07 01:11:17;;;;;;;84.05;22.10;;;;;;;1.24;98.74;99561.69;3467589;28;20088;-49
2021/01/07 01:12:59;;;;;;;92.72;24.05;;;;;;;1.25;98.77;99558.31;3469862;28;20355;-48
2021/01/07 01:14:45;;;;;;;81.28;21.42;;;;;;;1.27;98.93;99555.84;3467482;28;20049;-49
2021/01/07 01:16:27;;;;;;;119.70;23.67;;;;;;;1.28;98.71;99555.03;3467928;28;20050;-49
2021/01/07 01:18:10;;;;;;;97.72;22.83;;;;;;;1.28;98.70;99553.38;3468674;28;20060;-48
2021/01/07 01:19:53;;;;;;;96.80;23.88;;;;;;;1.29;98.86;99554.25;3468084;28;20053;-48
2021/01/07 01:21:34;;;;;;;97.30;23.20;;;;;;;1.29;99.00;99554.25;3469431;28;20060;-49
2021/01/07 01:23:17;;;;;;;98.13;24.60;;;;;;;1.31;98.83;99547.53;3467119;28;20622;-48
2021/01/07 01:25:00;;;;;;;94.03;22.45;;;;;;;1.31;98.71;99552.63;3466929;28;20083;-49
2021/01/07 01:26:42;;;;;;;97.27;24.60;;;;;;;1.31;98.58;99547.53;3469787;28;20053;-48
2021/01/07 01:28:24;;;;;;;102.53;25.27;;;;;;;1.32;98.66;99550.16;3466697;28;20045;-48
2021/01/07 01:30:07;;;;;;;88.85;23.20;;;;;;;1.33;98.93;99551.03;3467600;28;20049;-49
2021/01/07 01:31:49;;;;;;;80.78;21.48;;;;;;;1.33;98.96;99545.91;3468081;28;20049;-47
2021/01/07 01:33:31;;;;;;;82.75;23.73;;;;;;;1.31;98.69;99540.72;3467279;28;20046;-47
2021/01/07 01:35:14;;;;;;;81.10;23.50;;;;;;;1.30;98.70;99533.88;3469326;28;20404;-49
2021/01/07 01:36:55;;;;;;;83.45;23.42;;;;;;;1.31;98.53;99534.75;3468137;28;20107;-48
2021/01/07 01:38:37;;;;;;;69.00;21.95;;;;;;;1.31;98.67;99538.16;3467216;28;20874;-47
2021/01/07 01:40:19;;;;;;;83.90;23.38;;;;;;;1.30;98.66;99533.88;3469037;28;20558;-48
2021/01/07 01:42:02;;;;;;;77.85;22.88;;;;;;;1.31;98.63;99534.75;3465699;28;20127;-47
2021/01/07 01:43:44;;;;;;;95.32;24.45;;;;;;;1.31;98.81;99529.63;3466957;28;20419;-48
2021/01/07 01:45:26;;;;;;;79.97;22.55;;;;;;;1.31;98.60;99525.38;3469297;28;20135;-48
2021/01/07 01:47:07;;;;;;;75.57;21.77;;;;;;;1.32;98.89;99523.75;3467007;28;20111;-51
2021/01/07 01:48:49;;;;;;;101.82;23.00;;;;;;;1.32;98.63;99514.38;3468934;28;20051;-48
2021/01/07 01:50:32;;;;;;;97.25;24.83;;;;;;;1.33;98.71;99513.56;3468263;28;20475;-48
2021/01/07 01:52:14;;;;;;;101.80;25.70;;;;;;;1.34;98.88;99514.47;3467187;28;20052;-47
2021/01/07 01:53:56;;;;;;;90.05;25.92;;;;;;;1.35;98.98;99511.97;3468955;28;20049;-48
2021/01/07 01:55:40;;;;;;;90.40;23.35;;;;;;;1.35;98.56;99511.09;3467852;28;20045;-48
2021/01/07 01:57:23;;;;;;;94.53;25.40;;;;;;;1.34;98.68;99488.91;3467176;28;20056;-48
2021/01/07 01:59:05;;;;;;;87.43;23.67;;;;;;;1.36;98.86;99488.16;3469228;28;20049;-49
2021/01/07 02:00:46;;;;;;;91.25;23.58;;;;;;;1.37;98.84;99477.16;3467027;28;20498;-47
2021/01/07 02:02:31;;;;;;;84.05;23.33;;;;;;;1.38;98.59;99481.44;3467079;28;20053;-47
2021/01/07 02:04:13;;;;;;;80.05;22.40;;;;;;;1.37;98.63;99472.03;3468087;28;20057;-48
2021/01/07 02:05:57;;;;;;;63.80;20.27;;;;;;;1.36;98.67;99470.28;3466996;28;20528;-48
2021/01/07 02:07:41;;;;;;;85.03;21.17;;;;;;;1.38;98.52;99462.69;3468321;28;20899;-48
2021/01/07 02:09:24;;;;;;;77.68;23.15;;;;;;;1.39;98.67;99472.13;3467810;28;20451;-47
2021/01/07 02:11:07;;;;;;;72.20;22.05;;;;;;;1.38;98.70;99463.53;3466857;28;20096;-48
2021/01/07 02:12:49;;;;;;;65.72;19.95;;;;;;;1.39;98.91;99461.88;3469023;28;20058;-48
2021/01/07 02:14:31;;;;;;;64.95;20.25;;;;;;;1.39;98.79;99454.22;3466920;28;20143;-48
2021/01/07 02:16:21;;;;;;;73.10;21.27;;;;;;;1.39;98.87;99446.56;3466710;28;20049;-47
2021/01/07 02:18:03;;;;;;;67.78;19.90;;;;;;;1.40;98.63;99447.41;3469091;28;20132;-48
2021/01/07 02:19:46;;;;;;;90.18;24.55;;;;;;;1.40;98.83;99447.41;3467004;28;20429;-48
2021/01/07 02:21:37;;;;;;;67.18;21.48;;;;;;;1.40;98.65;99450.84;3466937;28;20502;-48
2021/01/07 02:23:19;;;;;;;69.32;21.33;;;;;;;1.38;98.51;99449.91;3469598;28;20462;-49
2021/01/07 02:25:01;;;;;;;63.65;20.38;;;;;;;1.38;98.84;99444.78;3466696;28;20053;-47
2021/01/07 02:26:44;;;;;;;65.70;19.92;;;;;;;1.37;98.49;99440.47;3466571;28;20057;-47
2021/01/07 02:28:26;;;;;;;72.20;20.25;;;;;;;1.39;98.61;99441.44;3468427;28;20064;-48
2021/01/07 02:30:08;;;;;;;62.40;20.88;;;;;;;1.38;98.86;99435.44;3466555;28;20057;-48
2021/01/07 02:31:50;;;;;;;79.45;22.17;;;;;;;1.38;98.47;99429.47;3467133;28;20475;-49
2021/01/07 02:33:31;;;;;;;65.38;21.52;;;;;;;1.39;98.39;99431.22;3467726;28;20073;-48
2021/01/07 02:35:13;;;;;;;70.95;21.67;;;;;;;1.39;98.71;99433.78;3466339;28;20071;-49
2021/01/07 02:36:56;;;;;;;74.53;21.58;;;;;;;1.40;98.43;99426.97;3468546;28;20641;-48
2021/01/07 02:38:38;;;;;;;66.95;20.70;;;;;;;1.41;98.73;99423.59;3468697;28;20054;-48
2021/01/07 02:40:20;;;;;;;68.90;21.40;;;;;;;1.40;98.58;99419.31;3471248;28;20477;-49
2021/01/07 02:42:02;;;;;;;62.40;19.77;;;;;;;1.41;98.70;99416.81;3471658;28;20553;-48
2021/01/07 02:43:45;;;;;;;63.78;20.77;;;;;;;1.40;98.47;99412.50;3470387;28;20650;-49
2021/01/07 02:45:27;;;;;;;64.18;20.15;;;;;;;1.41;98.49;99416.81;3470994;28;20127;-47
2021/01/07 02:47:09;;;;;;;54.40;18.55;;;;;;;1.42;98.68;99412.59;3473325;28;20077;-48
2021/01/07 02:48:51;;;;;;;57.10;18.42;;;;;;;1.40;98.72;99402.28;3470974;28;20560;-48
2021/01/07 02:50:33;;;;;;;60.75;18.17;;;;;;;1.41;98.57;99404.06;3471379;28;20045;-51
2021/01/07 02:52:15;;;;;;;52.35;16.52;;;;;;;1.41;98.66;99403.16;3472993;28;20045;-47
2021/01/07 02:53:57;;;;;;;60.13;18.00;;;;;;;1.41;98.56;99403.16;3471319;28;20080;-48
2021/01/07 02:55:39;;;;;;;54.40;18.38;;;;;;;1.42;98.44;99398.13;3472659;28;20426;-50
2021/01/07 02:57:21;;;;;;;60.00;20.30;;;;;;;1.42;98.65;99399.81;3471146;28;20061;-49
2021/01/07 02:59:03;;;;;;;57.15;20.30;;;;;;;1.42;98.46;99395.56;3471348;28;20525;-47
2021/01/07 03:00:45;;;;;;;60.63;20.52;;;;;;;1.42;98.45;99397.25;3473069;28;20049;-48
2021/01/07 03:02:28;;;;;;;54.80;18.77;;;;;;;1.42;98.43;99395.56;3470734;28;20045;-49
2021/01/07 03:04:09;;;;;;;58.45;19.98;;;;;;;1.43;98.63;99397.31;3471196;28;20049;-48
2021/01/07 03:05:51;;;;;;;65.35;21.40;;;;;;;1.43;98.31;99399.88;3473161;28;20053;-47
2021/01/07 03:07:33;;;;;;;60.05;20.95;;;;;;;1.43;98.50;99399.88;3471202;28;20048;-50
2021/01/07 03:09:15;;;;;;;53.65;20.08;;;;;;;1.43;98.60;99386.22;3472423;28;20057;-48
2021/01/07 03:10:57;;;;;;;58.92;19.98;;;;;;;1.43;98.54;99382.00;3471656;28;20053;-48
2021/01/07 03:12:39;;;;;;;59.47;20.60;;;;;;;1.42;98.51;99372.56;3471219;28;20077;-48
2021/01/07 03:14:21;;;;;;;62.08;21.17;;;;;;;1.44;98.52;99367.53;3472996;28;20057;-50
2021/01/07 03:16:04;;;;;;;58.33;19.17;;;;;;;1.43;98.26;99373.44;3470783;28;20107;-47
2021/01/07 03:17:47;;;;;;;66.05;20.25;;;;;;;1.44;98.46;99367.53;3470953;28;20046;-48
2021/01/07 03:19:28;;;;;;;62.08;21.55;;;;;;;1.44;98.41;99364.97;3472894;28;20049;-48
2021/01/07 03:21:11;;;;;;;59.42;19.25;;;;;;;1.43;98.33;99361.53;3471015;28;20057;-48
2021/01/07 03:22:53;;;;;;;62.35;19.67;;;;;;;1.44;98.47;99359.84;3471373;28;20087;-49
2021/01/07 03:24:37;;;;;;;54.83;20.80;;;;;;;1.44;98.06;99360.75;3472357;28;20045;-48
2021/01/07 03:26:19;;;;;;;52.17;19.67;;;;;;;1.45;98.40;99364.16;3470636;28;20123;-48
2021/01/07 03:28:00;;;;;;;57.60;20.35;;;;;;;1.44;98.25;99354.75;3473130;28;20057;-47
2021/01/07 03:29:42;;;;;;;58.45;19.77;;;;;;;1.44;98.44;99363.31;3471225;28;20138;-48
2021/01/07 03:31:24;;;;;;;44.47;17.17;;;;;;;1.43;98.05;99351.31;3470380;28;20052;-50
2021/01/07 03:33:06;;;;;;;41.55;16.77;;;;;;;1.44;98.15;99353.09;3472976;28;20061;-48
2021/01/07 03:34:47;;;;;;;51.28;19.17;;;;;;;1.44;98.18;99355.63;3470971;28;20057;-47
2021/01/07 03:36:29;;;;;;;47.67;18.20;;;;;;;1.45;98.02;99346.28;3471014;28;20053;-49
2021/01/07 03:38:12;;;;;;;46.30;16.77;;;;;;;1.44;98.16;99344.50;3471593;28;20114;-48
2021/01/07 03:39:54;;;;;;;43.47;16.67;;;;;;;1.44;98.26;99350.53;3470707;28;20583;-47
2021/01/07 03:41:35;;;;;;;38.22;16.42;;;;;;;1.44;98.00;99340.31;3472668;28;20049;-49
2021/01/07 03:43:17;;;;;;;44.33;16.77;;;;;;;1.44;97.99;99345.41;3469973;28;20060;-48
2021/01/07 03:44:59;;;;;;;39.63;14.80;;;;;;;1.44;98.08;99334.28;3470552;28;20045;-49
2021/01/07 03:46:41;;;;;;;37.80;15.55;;;;;;;1.44;98.19;99332.63;3472749;28;20516;-47
2021/01/07 03:48:23;;;;;;;43.25;16.00;;;;;;;1.44;98.17;99326.63;3470512;28;20529;-50
2021/01/07 03:50:05;;;;;;;43.40;16.42;;;;;;;1.44;98.31;99322.41;3469250;28;20069;-49
2021/01/07 03:51:48;;;;;;;42.45;15.45;;;;;;;1.45;98.02;99323.28;3470250;28;20057;-49
2021/01/07 03:53:31;;;;;;;44.08;16.25;;;;;;;1.43;98.02;99317.22;3468492;28;20045;-49
2021/01/07 03:55:13;;;;;;;36.55;16.00;;;;;;;1.45;98.13;99313.91;3469018;28;20461;-48
2021/01/07 03:56:55;;;;;;;38.50;15.63;;;;;;;1.46;98.16;99320.78;3469929;28;20060;-47
2021/01/07 03:58:37;;;;;;;44.33;16.23;;;;;;;1.46;97.94;99313.13;3468707;28;20045;-48
2021/01/07 04:00:19;;;;;;;44.78;17.02;;;;;;;1.44;98.22;99317.31;3470745;28;20057;-49
2021/01/07 04:02:01;;;;;;;35.33;14.82;;;;;;;1.46;98.17;99314.78;3468176;28;20058;-48
2021/01/07 04:03:43;;;;;;;39.50;15.55;;;;;;;1.46;98.25;99312.22;3468959;28;20077;-49
2021/01/07 04:05:26;;;;;;;42.00;16.48;;;;;;;1.46;98.14;99315.69;3469989;28;20049;-48
2021/01/07 04:07:08;;;;;;;37.20;15.68;;;;;;;1.47;98.14;99317.41;3467967;28;20045;-48
2021/01/07 04:08:51;;;;;;;36.50;15.32;;;;;;;1.47;98.28;99317.41;3468328;28;20136;-48
2021/01/07 04:10:33;;;;;;;41.78;15.75;;;;;;;1.47;98.05;99319.09;3470070;28;20045;-51
2021/01/07 04:12:15;;;;;;;33.30;14.85;;;;;;;1.47;98.02;99306.31;3468412;28;20041;-48
2021/01/07 04:14:15;;;;;;;35.83;15.27;;;;;;;1.47;98.21;99301.22;3468366;28;20046;-48
2021/01/07 04:15:57;;;;;;;39.42;14.75;;;;;;;1.43;97.95;99299.34;3470084;28;20030;-49
2021/01/07 04:17:40;;;;;;;72.43;18.23;;;;;;;1.48;97.98;99305.53;3469099;28;20140;-48
2021/01/07 04:19:22;;;;;;;53.63;18.15;;;;;;;1.48;98.17;99305.53;3469444;28;20449;-48
2021/01/07 04:21:04;;;;;;;39.25;15.25;;;;;;;1.48;97.96;99301.28;3468976;28;20474;-49
2021/01/07 04:22:46;;;;;;;33.28;14.38;;;;;;;1.48;98.22;99301.28;3467698;28;20061;-48
2021/01/07 04:24:29;;;;;;;35.13;14.63;;;;;;;1.50;97.88;99306.47;3469894;28;20057;-49
2021/01/07 04:26:11;;;;;;;81.80;17.23;;;;;;;1.48;98.25;99311.50;3468293;28;20115;-47
2021/01/07 04:27:53;;;;;;;46.58;16.73;;;;;;;1.49;97.94;99315.78;3467736;28;20076;-49
2021/01/07 04:29:36;;;;;;;45.90;16.25;;;;;;;1.49;98.23;99318.34;3470042;28;20129;-48
2021/01/07 04:31:17;;;;;;;40.67;15.48;;;;;;;1.48;97.96;99319.19;3468085;28;20050;-48
2021/01/07 04:32:59;;;;;;;43.47;17.67;;;;;;;1.50;98.12;99314.13;3468000;28;20462;-48
2021/01/07 04:34:41;;;;;;;43.33;16.92;;;;;;;1.50;98.09;99320.13;3470274;28;20331;-48
2021/01/07 04:36:23;;;;;;;49.35;17.02;;;;;;;1.50;98.00;99322.66;3467955;28;20060;-48
2021/01/07 04:38:05;;;;;;;44.33;16.58;;;;;;;1.49;98.19;99318.34;3468048;28;20077;-48
2021/01/07 04:39:48;;;;;;;38.80;14.77;;;;;;;1.50;98.25;99317.56;3469365;28;20140;-48
2021/01/07 04:41:31;;;;;;;55.78;15.32;;;;;;;1.50;98.24;99325.22;3467745;28;20569;-48
2021/01/07 04:43:13;;;;;;;41.38;14.95;;;;;;;1.50;98.27;99324.34;3467979;28;20045;-48
2021/01/07 04:44:56;;;;;;;35.30;14.48;;;;;;;1.51;97.90;99321.88;3468760;28;20107;-48
2021/01/07 04:46:38;;;;;;;43.53;16.13;;;;;;;1.51;98.32;99321.88;3467838;28;20047;-48
2021/01/07 04:48:22;;;;;;;39.05;14.95;;;;;;;1.52;98.02;99318.50;3469776;28;20795;-49
2021/01/07 04:50:05;;;;;;;;;;;;;;;1.51;98.24;99316.75;3469203;28;20056;-47
2021/01/07 04:51:47;;;;;;;35.85;13.38;;;;;;;1.52;98.00;99313.38;3467976;28;20499;-48
2021/01/07 04:53:29;;;;;;;38.95;16.20;;;;;;;1.52;97.87;99304.84;3469926;28;20060;-50
2021/01/07 04:55:13;;;;;;;35.35;14.45;;;;;;;1.53;98.19;99298.91;3468173;28;20053;-48
2021/01/07 04:56:55;;;;;;;41.50;16.35;;;;;;;1.53;98.03;99297.25;3467352;28;20510;-47
2021/01/07 04:58:38;;;;;;;38.40;14.57;;;;;;;1.53;98.19;99286.13;3470048;28;20246;-49
2021/01/07 05:00:21;;;;;;;47.92;16.15;;;;;;;1.53;98.00;99283.56;3467696;28;20045;-48
2021/01/07 05:02:03;;;;;;;35.30;13.98;;;;;;;1.52;97.97;99282.72;3467104;28;20912;-48
2021/01/07 05:03:51;;;;;;;41.45;15.68;;;;;;;1.53;98.26;99281.91;3469736;28;20334;-48
2021/01/07 05:05:34;;;;;;;49.08;15.88;;;;;;;1.53;98.33;99283.56;3467675;28;20103;-49
2021/01/07 05:07:19;;;;;;;44.47;15.32;;;;;;;1.52;98.24;99282.72;3468270;28;20041;-48
2021/01/07 05:09:02;;;;;;;45.75;14.85;;;;;;;1.53;98.15;99274.25;3469690;28;20065;-48
2021/01/07 05:10:46;;;;;;;47.45;14.98;;;;;;;1.53;97.94;99275.91;3467178;28;20144;-48
2021/01/07 05:12:28;;;;;;;52.15;15.25;;;;;;;1.53;98.21;99276.81;3468400;28;20458;-48
2021/01/07 05:14:11;;;;;;;37.72;13.95;;;;;;;1.55;98.19;99276.88;3469249;28;20049;-48
2021/01/07 05:15:53;;;;;;;51.85;15.27;;;;;;;1.53;98.05;99269.13;3467236;28;20041;-48
2021/01/07 05:17:36;;;;;;;42.40;12.57;;;;;;;1.54;98.03;99270.00;3469555;28;20128;-49
2021/01/07 05:19:18;;;;;;;43.40;14.13;;;;;;;1.53;98.50;99270.78;3467988;28;20148;-48
2021/01/07 05:21:00;;;;;;;43.10;14.27;;;;;;;1.54;98.16;99260.63;3467754;28;20846;-48
2021/01/07 05:22:43;;;;;;;62.97;15.52;;;;;;;1.55;98.31;99264.09;3469803;28;20057;-48
2021/01/07 05:24:26;;;;;;;74.57;15.95;;;;;;;1.54;98.32;99258.06;3467267;28;20136;-47
2021/01/07 05:26:12;;;;;;;54.78;16.10;;;;;;;1.54;98.03;99247.84;3467286;28;20128;-48
2021/01/07 05:27:53;;;;;;;38.97;13.35;;;;;;;1.53;98.21;99253.78;3469425;28;20064;-47
2021/01/07 05:29:37;;;;;;;68.72;17.10;;;;;;;1.55;98.07;99253.88;3467269;28;20054;-48
2021/01/07 05:31:18;;;;;;;41.42;13.90;;;;;;;1.53;98.35;99256.34;3468467;28;20057;-47
2021/01/07 05:33:02;;;;;;;39.00;13.55;;;;;;;1.53;98.10;99258.00;3468656;28;20137;-48
2021/01/07 05:34:48;;;;;;;42.25;14.02;;;;;;;1.56;98.32;99258.16;3467084;28;20110;-49
2021/01/07 05:36:31;;;;;;;49.45;13.70;;;;;;;1.56;98.13;99247.91;3469005;28;20052;-49
2021/01/07 05:38:13;;;;;;;48.53;14.25;;;;;;;1.56;98.37;99242.81;3468098;28;20056;-48
2021/01/07 05:39:54;;;;;;;34.20;13.00;;;;;;;1.56;98.07;99242.81;3466748;28;20049;-48
2021/01/07 05:41:36;;;;;;;38.92;12.40;;;;;;;1.56;98.08;99248.81;3469035;28;20053;-48
2021/01/07 05:43:18;;;;;;;36.75;13.90;;;;;;;1.56;98.44;99250.47;3465428;28;20100;-49
2021/01/07 05:45:05;;;;;;;38.58;12.60;;;;;;;1.56;98.35;99250.47;3467532;28;20052;-48
2021/01/07 05:46:46;;;;;;;74.72;15.38;;;;;;;1.56;98.35;99251.38;3469168;28;20111;-48
2021/01/07 05:48:31;;;;;;;40.50;12.30;;;;;;;1.56;98.25;99246.25;3467213;28;20049;-48
2021/01/07 05:50:13;;;;;;;44.00;13.15;;;;;;;1.56;98.43;99246.25;3468399;28;20330;-48
2021/01/07 05:51:55;;;;;;;42.75;13.30;;;;;;;1.57;98.48;99249.69;3467959;28;20502;-48
2021/01/07 05:53:38;;;;;;;39.35;12.70;;;;;;;1.57;98.54;99249.69;3467056;28;21604;-48
2021/01/07 05:55:20;;;;;;;48.88;15.05;;;;;;;1.58;98.14;99246.31;3468949;28;20053;-48
2021/01/07 05:57:04;;;;;;;71.25;14.25;;;;;;;1.59;98.33;99242.09;3468379;28;20057;-47
2021/01/07 05:58:47;;;;;;;99.80;19.23;;;;;;;1.60;98.22;99241.25;3466684;28;20068;-48
2021/01/07 06:00:32;;;;;;;82.20;16.02;;;;;;;1.60;98.32;99238.69;3469340;28;20053;-47
2021/01/07 06:02:16;;;;;;;65.28;13.65;;;;;;;1.60;98.18;99234.47;3466776;28;20053;-48
2021/01/07 06:03:58;;;;;;;51.00;14.27;;;;;;;1.60;98.30;99233.59;3466934;28;20076;-48
2021/01/07 06:05:40;;;;;;;46.28;13.18;;;;;;;1.61;98.26;99240.47;3468719;28;20612;-48
2021/01/07 06:07:25;;;;;;;52.95;14.88;;;;;;;1.61;98.29;99238.78;3467174;28;20053;-48
2021/01/07 06:09:07;;;;;;;47.30;12.77;;;;;;;1.61;98.31;99243.88;3468076;28;20300;-47
2021/01/07 06:10:51;;;;;;;50.83;15.02;;;;;;;1.62;98.37;99235.41;3467694;28;20111;-48
2021/01/07 06:12:33;;;;;;;58.20;16.80;;;;;;;1.63;98.46;99232.03;3466738;28;20099;-50
2021/01/07 06:14:14;;;;;;;72.82;15.70;;;;;;;1.64;98.39;99245.72;3468380;28;20045;-49
2021/01/07 06:15:56;;;;;;;54.90;14.15;;;;;;;1.65;98.53;99235.53;3466760;28;20053;-49
2021/01/07 06:17:38;;;;;;;83.90;17.85;;;;;;;1.65;98.29;99235.53;3467835;28;20076;-48
2021/01/07 06:19:36;;;;;;;66.32;17.33;;;;;;;1.66;98.45;99244.97;3469142;28;20072;-48
2021/01/07 06:21:18;;;;;;;58.65;14.52;;;;;;;1.67;98.56;99244.16;3467811;28;20099;-47
2021/01/07 06:23:04;;;;;;;82.60;16.27;;;;;;;1.67;98.23;99250.94;3467209;28;20092;-47
2021/01/07 06:24:51;;;;;;;74.00;15.90;;;;;;;1.68;98.32;99255.25;3468755;28;20045;-48
2021/01/07 06:26:33;;;;;;;89.72;17.48;;;;;;;1.68;98.58;99245.03;3466877;28;20057;-49
2021/01/07 06:28:27;;;;;;;52.28;14.93;;;;;;;1.69;98.46;99244.19;3466705;28;20045;-48
2021/01/07 06:30:31;;;;;;;48.55;12.93;;;;;;;1.70;98.54;99251.06;3468954;28;20145;-48
2021/01/07 06:32:14;;;;;;;67.32;17.40;;;;;;;1.71;98.44;99250.28;3467650;28;20065;-49
2021/01/07 06:33:56;;;;;;;49.20;14.25;;;;;;;1.72;98.62;99241.78;3466351;28;20053;-48
2021/01/07 06:35:40;;;;;;;86.20;17.45;;;;;;;1.74;98.46;99241.03;3468932;28;20050;-49
2021/01/07 06:37:32;;;;;;;68.75;14.65;;;;;;;1.73;98.59;99238.41;3467240;28;20430;-48
2021/01/07 06:39:14;;;;;;;62.50;16.33;;;;;;;1.76;98.69;99236.00;3466622;28;20046;-48
2021/01/07 06:40:58;;;;;;;48.05;14.63;;;;;;;1.77;98.34;99226.63;3468432;28;20058;-48
2021/01/07 06:42:40;;;;;;;;;;;;;;;1.78;98.27;99233.47;3465366;28;20049;-47
2021/01/07 06:44:23;;;;;;;42.22;14.02;;;;;;;1.80;98.34;99234.44;3466448;28;19930;-48
2021/01/07 06:46:05;;;;;;;68.28;16.80;;;;;;;1.79;98.67;99225.88;3468778;28;20500;-48
2021/01/07 06:47:47;;;;;;;55.55;15.98;;;;;;;1.81;98.40;99231.06;3466544;28;20103;-47
2021/01/07 06:49:30;;;;;;;52.05;14.63;;;;;;;1.82;98.36;99233.69;3466982;28;20050;-48
2021/01/07 06:51:13;;;;;;;87.32;18.23;;;;;;;1.83;98.29;99229.44;3468622;28;20057;-52
2021/01/07 06:53:02;;;;;;;86.60;19.38;;;;;;;1.84;98.43;99237.16;3466144;28;20529;-48
2021/01/07 06:54:45;;;;;;;36.90;14.70;;;;;;;1.85;98.47;99228.69;3467984;28;20208;-49
2021/01/07 06:56:30;;;;;;;52.22;14.18;;;;;;;1.87;98.69;99231.31;3467309;28;20057;-50
2021/01/07 06:58:19;;;;;;;49.55;15.82;;;;;;;1.87;98.32;99223.66;3466453;28;20057;-47
2021/01/07 07:00:04;;;;;;;44.92;15.25;;;;;;;1.88;98.35;99228.84;3468156;28;20060;-49
2021/01/07 07:01:48;;;;;;;67.15;16.88;;;;;;;1.89;98.52;99222.03;3466917;28;20080;-47
2021/01/07 07:03:31;;;;;;;;;;;;;;;1.89;98.58;99230.56;3467081;28;20080;-48
2021/01/07 07:05:18;;;;;;;36.45;13.20;;;;;;;1.90;98.59;99231.44;3468440;28;19929;-48
2021/01/07 07:07:24;;;;;;;43.80;16.90;;;;;;;1.90;98.38;99227.22;3466345;28;20060;-48
2021/01/07 07:09:19;;;;;;;42.13;15.00;;;;;;;1.92;98.32;99220.47;3467158;28;20153;-47
2021/01/07 07:11:08;;;;;;;41.45;15.23;;;;;;;1.94;98.26;99220.53;3467008;28;20053;-48
2021/01/07 07:12:51;;;;;;;49.47;15.35;;;;;;;1.94;98.45;99221.41;3468544;28;20053;-48
2021/01/07 07:14:33;;;;;;;54.72;17.50;;;;;;;1.95;98.32;99212.03;3466013;28;20095;-49
2021/01/07 07:16:18;;;;;;;37.83;15.60;;;;;;;1.96;98.47;99213.78;3467791;28;20046;-48
2021/01/07 07:17:59;;;;;;;50.75;16.88;;;;;;;1.98;98.33;99206.19;3466986;28;20060;-47
2021/01/07 07:19:46;;;;;;;44.92;16.10;;;;;;;1.99;98.33;99203.69;3466082;28;20049;-48
2021/01/07 07:21:29;;;;;;;41.45;16.83;;;;;;;2.01;98.56;99202.06;3468263;28;20081;-47
2021/01/07 07:23:17;;;;;;;44.22;17.02;;;;;;;2.02;98.45;99197.81;3466394;28;20054;-47
2021/01/07 07:25:01;;;;;;;45.83;15.35;;;;;;;2.02;98.42;99198.66;3465956;28;20548;-51
2021/01/07 07:26:44;;;;;;;48.17;16.52;;;;;;;2.04;98.17;99193.63;3470566;28;20049;-48
2021/01/07 07:28:26;;;;;;;58.80;18.92;;;;;;;2.04;98.46;99191.97;3468492;28;20085;-48
2021/01/07 07:30:09;;;;;;;55.17;19.10;;;;;;;2.05;98.24;99190.25;3468707;28;20057;-49
2021/01/07 07:31:52;;;;;;;52.55;16.88;;;;;;;2.06;98.56;99186.88;3470578;28;20106;-49
2021/01/07 07:33:35;;;;;;;65.70;21.27;;;;;;;2.07;98.26;99175.84;3468459;28;20136;-49
2021/01/07 07:35:21;;;;;;;66.43;20.52;;;;;;;2.08;98.22;99177.59;3469524;28;20056;-49
2021/01/07 07:37:18;;;;;;;65.38;20.40;;;;;;;2.01;98.17;99171.38;3456928;28;20088;-49
2021/01/07 07:39:00;;;;;;;65.32;19.42;;;;;;;2.08;98.44;99170.78;3467218;28;20054;-48
2021/01/07 07:40:42;;;;;;;77.18;21.83;;;;;;;2.11;98.47;99165.81;3468924;28;20148;-48
2021/01/07 07:42:26;;;;;;;76.05;22.00;;;;;;;2.12;98.51;99166.66;3469235;28;20056;-48
2021/01/07 07:44:08;;;;;;;72.85;23.05;;;;;;;2.14;98.14;99167.59;3468349;28;20049;-49
2021/01/07 07:45:52;;;;;;;77.57;22.30;;;;;;;2.13;98.30;99163.31;3468291;28;20060;-49
2021/01/07 07:47:35;;;;;;;94.88;23.58;;;;;;;2.14;98.15;99157.34;3456908;28;20426;-48
2021/01/07 07:49:16;;;;;;;66.10;20.23;;;;;;;2.16;98.37;99159.97;3465548;28;20045;-48
2021/01/07 07:51:08;;;;;;;59.30;20.10;;;;;;;2.17;98.14;99161.75;3469131;28;20457;-49
2021/01/07 07:52:49;;;;;;;106.03;23.55;;;;;;;2.16;98.46;99157.41;3469800;28;20049;-50
2021/01/07 07:54:31;;;;;;;75.35;21.35;;;;;;;2.16;98.37;99152.31;3468072;28;20052;-51
2021/01/07 07:56:20;;;;;;;87.90;24.20;;;;;;;2.16;98.13;99142.94;3470376;28;20057;-48
2021/01/07 07:58:08;;;;;;;95.60;24.95;;;;;;;2.19;98.18;99148.19;3469767;28;20061;-48
2021/01/07 07:59:50;;;;;;;101.28;23.65;;;;;;;2.19;98.13;99149.88;3469828;28;20056;-47
2021/01/07 08:01:43;;;;;;;79.38;23.50;;;;;;;2.19;98.30;99148.19;3470015;28;20571;-47